createdAt,value
2023-03-03T00:00:25.158Z,97809.31
2023-03-03T00:02:27.878Z,97799.03
2023-03-03T00:04:30.519Z,97814.00
2023-03-03T00:06:33.314Z,97806.53
2023-03-03T00:08:35.912Z,97806.53
2023-03-03T00:10:39.578Z,97811.63
2023-03-03T00:12:50.256Z,97811.78
2023-03-03T00:14:53.720Z,97801.47
2023-03-03T00:16:57.219Z,97807.59
2023-03-03T00:19:01.368Z,97803.31
2023-03-03T00:21:29.542Z,97804.28
2023-03-03T00:23:37.580Z,97805.88
2023-03-03T00:25:44.122Z,97800.56
2023-03-03T00:27:47.441Z,97811.94
2023-03-03T00:29:54.184Z,97802.69
2023-03-03T00:32:16.799Z,97798.97
2023-03-03T00:34:20.384Z,97802.75
2023-03-03T00:36:32.938Z,97797.09
2023-03-03T00:38:37.148Z,97802.13
2023-03-03T00:40:40.993Z,97800.75
2023-03-03T00:42:49.024Z,97799.13
2023-03-03T00:44:59.917Z,97805.91
2023-03-03T00:47:14.490Z,97800.00
2023-03-03T00:49:26.308Z,97800.44
2023-03-03T00:51:34.703Z,97802.19
2023-03-03T00:53:37.410Z,97797.28
2023-03-03T00:55:40.781Z,97800.44
2023-03-03T00:57:43.481Z,97804.16
2023-03-03T00:59:46.189Z,97802.53
2023-03-03T01:01:48.915Z,97804.06
2023-03-03T01:03:51.686Z,97796.56
2023-03-03T01:05:54.889Z,97799.69
2023-03-03T01:07:57.587Z,97795.66
2023-03-03T01:10:00.211Z,97806.78
2023-03-03T01:12:02.943Z,97808.00
2023-03-03T01:14:05.637Z,97798.63
2023-03-03T01:16:08.648Z,97802.31
2023-03-03T01:18:13.117Z,97798.53
2023-03-03T01:20:16.054Z,97795.06
2023-03-03T01:22:18.912Z,97792.97
2023-03-03T01:24:22.216Z,97785.56
2023-03-03T01:26:24.952Z,97783.47
2023-03-03T01:28:27.764Z,97775.00
2023-03-03T01:30:31.432Z,97782.50
2023-03-03T01:32:34.667Z,97771.88
2023-03-03T01:34:37.297Z,97776.22
2023-03-03T01:36:39.900Z,97765.47
2023-03-03T01:38:43.491Z,97773.78
2023-03-03T01:40:56.845Z,97780.75
2023-03-03T01:43:01.154Z,97780.81
2023-03-03T01:45:44.080Z,97785.91
2023-03-03T01:47:58.907Z,97779.53
2023-03-03T01:50:11.694Z,97773.97
2023-03-03T01:52:36.351Z,97775.84
2023-03-03T01:54:53.172Z,97770.59
2023-03-03T01:56:59.907Z,97773.31
2023-03-03T01:59:07.686Z,97766.69
2023-03-03T02:01:14.950Z,97770.75
2023-03-03T02:03:21.220Z,97771.81
2023-03-03T02:05:23.909Z,97768.31
2023-03-03T02:07:29.881Z,97772.25
2023-03-03T02:09:47.442Z,97774.06
2023-03-03T02:11:52.749Z,97778.09
2023-03-03T02:13:55.701Z,97774.63
2023-03-03T02:15:59.371Z,97765.84
2023-03-03T02:18:11.703Z,97761.59
2023-03-03T02:20:51.443Z,97767.00
2023-03-03T02:23:16.753Z,97753.75
2023-03-03T02:25:46.667Z,97764.66
2023-03-03T02:27:49.792Z,97758.28
2023-03-03T02:29:52.673Z,97766.28
2023-03-03T02:31:55.570Z,97761.41
2023-03-03T02:33:58.656Z,97759.31
2023-03-03T02:36:01.250Z,97754.22
2023-03-03T02:38:31.228Z,97760.63
2023-03-03T02:40:41.091Z,97760.09
2023-03-03T02:42:45.818Z,97747.31
2023-03-03T02:44:48.458Z,97754.56
2023-03-03T02:46:53.022Z,97748.28
2023-03-03T02:48:55.730Z,97751.00
2023-03-03T02:50:58.443Z,97744.13
2023-03-03T02:53:01.028Z,97744.38
2023-03-03T02:55:03.848Z,97731.69
2023-03-03T02:57:07.428Z,97734.94
2023-03-03T02:59:10.683Z,97735.50
2023-03-03T03:01:13.351Z,97736.38
2023-03-03T03:03:16.220Z,97734.25
2023-03-03T03:05:18.860Z,97737.56
2023-03-03T03:07:21.508Z,97732.28
2023-03-03T03:09:26.110Z,97724.53
2023-03-03T03:11:28.733Z,97725.09
2023-03-03T03:13:32.168Z,97725.97
2023-03-03T03:15:36.195Z,97713.47
2023-03-03T03:17:39.777Z,97724.19
2023-03-03T03:19:42.413Z,97724.91
2023-03-03T03:21:45.099Z,97711.03
2023-03-03T03:23:47.740Z,97721.28
2023-03-03T03:25:50.593Z,97725.72
2023-03-03T03:27:53.647Z,97716.69
2023-03-03T03:29:56.365Z,97715.69
2023-03-03T03:31:59.010Z,97709.72
2023-03-03T03:34:01.835Z,97726.03
2023-03-03T03:36:06.640Z,97720.47
2023-03-03T03:38:09.234Z,97718.03
2023-03-03T03:40:12.397Z,97719.34
2023-03-03T03:42:15.578Z,97718.56
2023-03-03T03:44:18.212Z,97722.53
2023-03-03T03:46:21.029Z,97711.75
2023-03-03T03:48:23.862Z,97701.66
2023-03-03T03:50:27.019Z,97714.69
2023-03-03T03:52:29.599Z,97704.28
2023-03-03T03:54:32.271Z,97706.63
2023-03-03T03:56:34.927Z,97704.78
2023-03-03T03:58:37.708Z,97712.25
2023-03-03T04:00:42.364Z,97708.88
2023-03-03T04:02:45.053Z,97710.78
2023-03-03T04:04:48.050Z,97711.66
2023-03-03T04:06:50.690Z,97714.06
2023-03-03T04:08:53.305Z,97714.47
2023-03-03T04:10:55.993Z,97714.28
2023-03-03T04:12:58.733Z,97709.00
2023-03-03T04:15:01.478Z,97708.25
2023-03-03T04:17:06.407Z,97709.09
2023-03-03T04:19:08.988Z,97712.38
2023-03-03T04:21:13.733Z,97715.97
2023-03-03T04:23:16.303Z,97697.84
2023-03-03T04:25:18.997Z,97703.56
2023-03-03T04:27:21.713Z,97704.97
2023-03-03T04:29:24.300Z,97700.22
2023-03-03T04:31:27.000Z,97710.69
2023-03-03T04:33:29.612Z,97702.66
2023-03-03T04:35:32.601Z,97698.97
2023-03-03T04:37:35.848Z,97698.59
2023-03-03T04:39:38.465Z,97698.34
2023-03-03T04:41:41.261Z,97691.16
2023-03-03T04:43:44.110Z,97698.34
2023-03-03T04:45:46.791Z,97689.56
2023-03-03T04:47:49.436Z,97702.91
2023-03-03T04:49:52.304Z,97700.22
2023-03-03T04:51:54.941Z,97693.31
2023-03-03T04:53:57.567Z,97687.75
2023-03-03T04:56:00.533Z,97690.56
2023-03-03T04:58:03.557Z,97692.56
2023-03-03T05:00:06.964Z,97692.41
2023-03-03T05:02:09.859Z,97688.50
2023-03-03T05:04:12.621Z,97689.09
2023-03-03T05:06:15.800Z,97694.00
2023-03-03T05:08:18.469Z,97688.72
2023-03-03T05:10:21.707Z,97693.56
2023-03-03T05:12:24.465Z,97694.94
2023-03-03T05:14:28.223Z,97691.25
2023-03-03T05:16:30.930Z,97700.06
2023-03-03T05:18:33.589Z,97694.75
2023-03-03T05:20:36.227Z,97694.75
2023-03-03T05:22:39.023Z,97693.72
2023-03-03T05:24:43.251Z,97687.28
2023-03-03T05:26:46.017Z,97694.56
2023-03-03T05:28:48.720Z,97676.59
2023-03-03T05:30:51.424Z,97688.91
2023-03-03T05:32:54.112Z,97687.56
2023-03-03T05:34:56.809Z,97692.38
2023-03-03T05:36:59.707Z,97698.84
2023-03-03T05:39:02.468Z,97687.88
2023-03-03T05:41:05.293Z,97691.09
2023-03-03T05:43:07.987Z,97685.44
2023-03-03T05:45:11.601Z,97689.47
2023-03-03T05:47:14.205Z,97687.09
2023-03-03T05:49:17.068Z,97684.41
2023-03-03T05:51:19.795Z,97682.03
2023-03-03T05:53:22.437Z,97679.91
2023-03-03T05:55:25.610Z,97683.66
2023-03-03T05:57:28.377Z,97676.97
2023-03-03T05:59:31.019Z,97683.38
2023-03-03T06:01:34.058Z,97678.81
2023-03-03T06:03:36.758Z,97690.88
2023-03-03T06:05:39.426Z,97683.91
2023-03-03T06:07:42.305Z,97691.44
2023-03-03T06:09:44.881Z,97684.22
2023-03-03T06:11:47.581Z,97674.25
2023-03-03T06:13:50.565Z,97679.63
2023-03-03T06:15:53.193Z,97686.84
2023-03-03T06:17:55.885Z,97680.13
2023-03-03T06:19:58.483Z,97669.38
2023-03-03T06:22:01.118Z,97666.16
2023-03-03T06:24:03.847Z,97664.00
2023-03-03T06:26:06.541Z,97668.25
2023-03-03T06:28:09.319Z,97654.31
2023-03-03T06:30:13.153Z,97662.03
2023-03-03T06:32:15.995Z,97662.38
2023-03-03T06:34:19.799Z,97662.03
2023-03-03T06:36:23.727Z,97655.53
2023-03-03T06:38:26.531Z,97659.00
2023-03-03T06:40:29.205Z,97661.38
2023-03-03T06:42:31.939Z,97654.38
2023-03-03T06:44:34.655Z,97651.44
2023-03-03T06:46:37.290Z,97647.66
2023-03-03T06:48:40.994Z,97654.66
2023-03-03T06:50:43.650Z,97649.84
2023-03-03T06:52:46.292Z,97649.28
2023-03-03T06:54:49.776Z,97643.34
2023-03-03T06:56:57.417Z,97641.72
2023-03-03T06:59:02.992Z,97640.94
2023-03-03T07:01:16.009Z,97647.66
2023-03-03T07:03:23.384Z,97649.50
2023-03-03T07:05:29.069Z,97648.34
2023-03-03T07:07:31.677Z,97639.91
2023-03-03T07:09:34.349Z,97645.50
2023-03-03T07:11:39.906Z,97642.25
2023-03-03T07:13:55.760Z,97637.06
2023-03-03T07:16:02.418Z,97643.69
2023-03-03T07:18:30.983Z,97642.91
2023-03-03T07:20:39.024Z,97640.47
2023-03-03T07:22:41.753Z,97643.91
2023-03-03T07:24:47.525Z,97639.34
2023-03-03T07:26:50.208Z,97633.09
2023-03-03T07:29:00.463Z,97634.69
2023-03-03T07:31:27.654Z,97627.09
2023-03-03T07:33:38.110Z,97620.00
2023-03-03T07:35:45.182Z,97625.31
2023-03-03T07:37:48.765Z,97625.66
2023-03-03T07:39:51.651Z,97619.22
2023-03-03T07:42:01.559Z,97625.31
2023-03-03T07:44:38.220Z,97619.47
2023-03-03T07:47:00.902Z,97620.31
2023-03-03T07:49:20.948Z,97613.09
2023-03-03T07:51:43.665Z,97619.16
2023-03-03T07:53:47.651Z,97610.41
2023-03-03T07:55:50.985Z,97615.59
2023-03-03T07:57:59.120Z,97609.41
2023-03-03T08:00:17.119Z,97617.31
2023-03-03T08:02:43.785Z,97613.34
2023-03-03T08:04:51.145Z,97616.84
2023-03-03T08:06:56.122Z,97627.16
2023-03-03T08:09:12.032Z,97617.13
2023-03-03T08:11:14.701Z,97623.78
2023-03-03T08:13:21.572Z,97627.53
2023-03-03T08:15:28.207Z,97617.69
2023-03-03T08:17:40.096Z,97622.78
2023-03-03T08:19:42.723Z,97610.47
2023-03-03T08:21:45.541Z,97611.63
2023-03-03T08:23:52.046Z,97620.41
2023-03-03T08:25:54.996Z,97610.47
2023-03-03T08:27:57.712Z,97612.28
2023-03-03T08:30:00.526Z,97611.38
2023-03-03T08:32:03.409Z,97613.13
2023-03-03T08:34:06.228Z,97615.22
2023-03-03T08:36:09.177Z,97609.13
2023-03-03T08:38:13.857Z,97607.75
2023-03-03T08:40:16.604Z,97605.66
2023-03-03T08:42:19.696Z,97600.63
2023-03-03T08:44:22.326Z,97602.56
2023-03-03T08:46:25.014Z,97600.94
2023-03-03T08:48:28.707Z,97603.34
2023-03-03T08:50:31.414Z,97607.53
2023-03-03T08:52:34.532Z,97604.19
2023-03-03T08:54:37.229Z,97606.88
2023-03-03T08:56:40.556Z,97597.41
2023-03-03T08:59:01.627Z,97595.19
2023-03-03T09:01:05.343Z,97608.53
2023-03-03T09:03:08.368Z,97597.59
2023-03-03T09:05:12.272Z,97592.69
2023-03-03T09:07:14.957Z,97602.47
2023-03-03T09:09:17.694Z,97590.81
2023-03-03T09:11:26.658Z,97594.06
2023-03-03T09:13:31.654Z,97592.13
2023-03-03T09:15:36.570Z,97599.72
2023-03-03T09:17:39.303Z,97594.06
2023-03-03T09:19:42.030Z,97592.25
2023-03-03T09:21:44.791Z,97592.19
2023-03-03T09:23:55.115Z,97583.72
2023-03-03T09:26:06.534Z,97586.09
2023-03-03T09:28:25.155Z,97579.69
2023-03-03T09:30:36.562Z,97581.69
2023-03-03T09:32:43.371Z,97575.88
2023-03-03T09:34:48.033Z,97573.31
2023-03-03T09:36:53.067Z,97571.53
2023-03-03T09:38:58.308Z,97569.88
2023-03-03T09:41:12.764Z,97573.44
2023-03-03T09:43:26.813Z,97573.50
2023-03-03T09:45:41.046Z,97571.47
2023-03-03T09:48:14.906Z,97574.75
2023-03-03T09:50:36.915Z,97568.16
2023-03-03T09:53:12.232Z,97568.94
2023-03-03T09:55:17.417Z,97569.75
2023-03-03T09:57:40.006Z,97576.56
2023-03-03T09:59:58.861Z,97573.06
2023-03-03T10:02:36.791Z,97569.50
2023-03-03T10:04:58.002Z,97567.81
2023-03-03T10:07:36.126Z,97560.00
2023-03-03T10:10:01.679Z,97571.50
2023-03-03T10:12:27.903Z,97576.41
2023-03-03T10:15:12.241Z,97572.22
2023-03-03T10:17:33.224Z,97565.31
2023-03-03T10:19:55.433Z,97571.38
2023-03-03T10:22:15.620Z,97567.53
2023-03-03T10:24:29.089Z,97562.50
2023-03-03T10:26:54.969Z,97565.31
2023-03-03T10:29:22.204Z,97570.81
2023-03-03T10:31:37.239Z,97568.78
2023-03-03T10:33:58.147Z,97575.00
2023-03-03T10:36:09.891Z,97575.81
2023-03-03T10:38:37.485Z,97580.00
2023-03-03T10:40:49.280Z,97580.41
2023-03-03T10:43:31.224Z,97578.31
2023-03-03T10:45:37.556Z,97573.72
2023-03-03T10:47:49.890Z,97580.41
2023-03-03T10:50:10.982Z,97586.13
2023-03-03T10:52:22.830Z,97583.84
2023-03-03T10:54:53.465Z,97593.94
2023-03-03T10:56:56.015Z,97590.72
2023-03-03T10:59:10.059Z,97582.22
2023-03-03T11:01:27.076Z,97588.72
2023-03-03T11:03:50.097Z,97591.00
2023-03-03T11:06:02.590Z,97583.72
2023-03-03T11:08:14.506Z,97583.91
2023-03-03T11:10:32.262Z,97593.00
2023-03-03T11:12:40.824Z,97589.31
2023-03-03T11:15:02.204Z,97593.59
2023-03-03T11:17:28.261Z,97590.78
2023-03-03T11:19:52.853Z,97596.50
2023-03-03T11:22:14.294Z,97601.88
2023-03-03T11:24:40.569Z,97601.19
2023-03-03T11:26:50.407Z,97594.53
2023-03-03T11:29:08.373Z,97596.22
2023-03-03T11:31:16.916Z,97599.03
2023-03-03T11:33:45.422Z,97600.13
2023-03-03T11:36:06.614Z,97599.59
2023-03-03T11:38:18.076Z,97592.94
2023-03-03T11:40:27.489Z,97600.94
2023-03-03T11:43:05.696Z,97596.31
2023-03-03T11:45:27.965Z,97605.94
2023-03-03T11:47:31.820Z,97605.16
2023-03-03T11:49:49.533Z,97605.53
2023-03-03T11:52:27.776Z,97602.75
2023-03-03T11:54:56.975Z,97602.34
2023-03-03T11:57:27.810Z,97599.13
2023-03-03T11:59:40.267Z,97596.22
2023-03-03T12:02:05.980Z,97599.91
2023-03-03T12:04:19.710Z,97590.91
2023-03-03T12:06:45.636Z,97599.00
2023-03-03T12:09:18.585Z,97591.28
2023-03-03T12:11:24.178Z,97600.06
2023-03-03T12:13:52.280Z,97607.09
2023-03-03T12:16:26.824Z,97607.09
2023-03-03T12:18:29.395Z,97600.69
2023-03-03T12:20:40.745Z,97596.59
2023-03-03T12:23:04.492Z,97600.53
2023-03-03T12:25:20.657Z,97607.41
2023-03-03T12:27:51.500Z,97594.25
2023-03-03T12:30:23.887Z,97599.31
2023-03-03T12:33:09.216Z,97598.06
2023-03-03T12:35:26.268Z,97602.13
2023-03-03T12:37:49.291Z,97609.94
2023-03-03T12:40:33.719Z,97604.84
2023-03-03T12:43:06.181Z,97600.84
2023-03-03T12:45:37.049Z,97596.34
2023-03-03T12:47:47.349Z,97596.16
2023-03-03T12:50:08.120Z,97603.75
2023-03-03T12:52:44.817Z,97598.53
2023-03-03T12:55:05.756Z,97598.53
2023-03-03T12:57:17.742Z,97606.16
2023-03-03T12:59:26.178Z,97606.22
2023-03-03T13:01:49.378Z,97602.63
2023-03-03T13:04:05.514Z,97605.84
2023-03-03T13:06:40.327Z,97607.75
2023-03-03T13:09:09.450Z,97605.66
2023-03-03T13:11:46.273Z,97607.41
2023-03-03T13:14:01.482Z,97607.50
2023-03-03T13:16:40.558Z,97609.00
2023-03-03T13:19:03.097Z,97613.00
2023-03-03T13:21:32.924Z,97614.63
2023-03-03T13:23:53.338Z,97629.50
2023-03-03T13:25:58.428Z,97621.91
2023-03-03T13:28:53.617Z,97621.91
2023-03-03T13:31:03.648Z,97622.03
2023-03-03T13:33:31.435Z,97620.22
2023-03-03T13:35:55.449Z,97617.81
2023-03-03T13:37:59.721Z,97620.13
2023-03-03T13:40:14.903Z,97622.03
2023-03-03T13:42:46.100Z,97618.81
2023-03-03T13:44:51.258Z,97616.63
2023-03-03T13:47:02.907Z,97622.03
2023-03-03T13:49:26.568Z,97620.13
2023-03-03T13:51:35.114Z,97628.50
2023-03-03T13:54:02.462Z,97624.50
2023-03-03T13:56:32.299Z,97624.50
2023-03-03T13:58:44.029Z,97630.41
2023-03-03T14:00:59.381Z,97626.19
2023-03-03T14:03:34.244Z,97627.41
2023-03-03T14:05:48.354Z,97623.09
2023-03-03T14:08:09.605Z,97623.69
2023-03-03T14:10:36.039Z,97626.41
2023-03-03T14:12:50.480Z,97629.38
2023-03-03T14:14:53.080Z,97635.38
2023-03-03T14:17:24.052Z,97635.75
2023-03-03T14:19:33.263Z,97640.66
2023-03-03T14:21:57.203Z,97647.81
2023-03-03T14:24:25.402Z,97649.50
2023-03-03T14:26:28.116Z,97642.88
2023-03-03T14:28:40.084Z,97649.16
2023-03-03T14:30:45.527Z,97655.06
2023-03-03T14:33:04.402Z,97647.34
2023-03-03T14:35:18.467Z,97648.22
2023-03-03T14:37:30.125Z,97659.31
2023-03-03T14:39:39.126Z,97651.44
2023-03-03T14:41:42.491Z,97662.13
2023-03-03T14:44:19.212Z,97655.16
2023-03-03T14:46:27.861Z,97656.44
2023-03-03T14:48:32.664Z,97661.56
2023-03-03T14:50:44.042Z,97657.75
2023-03-03T14:53:12.004Z,97653.97
2023-03-03T14:55:45.452Z,97653.38
2023-03-03T14:57:48.276Z,97660.88
2023-03-03T15:00:11.195Z,97658.69
2023-03-03T15:02:16.542Z,97656.78
2023-03-03T15:04:21.697Z,97647.91
2023-03-03T15:06:29.108Z,97650.88
2023-03-03T15:08:34.790Z,97662.97
2023-03-03T15:10:41.179Z,97654.88
2023-03-03T15:12:43.999Z,97660.78
2023-03-03T15:14:49.266Z,97655.13
2023-03-03T15:16:52.303Z,97660.00
2023-03-03T15:19:16.609Z,97664.00
2023-03-03T15:21:32.414Z,97671.31
2023-03-03T15:23:44.148Z,97670.50
2023-03-03T15:26:01.076Z,97667.22
2023-03-03T15:28:08.346Z,97675.31
2023-03-03T15:30:44.300Z,97676.41
2023-03-03T15:33:20.967Z,97678.50
2023-03-03T15:35:45.102Z,97682.50
2023-03-03T15:37:56.738Z,97680.69
2023-03-03T15:40:13.974Z,97680.41
2023-03-03T15:42:43.156Z,97682.59
2023-03-03T15:45:06.533Z,97680.19
2023-03-03T15:47:15.114Z,97686.69
2023-03-03T15:49:38.404Z,97686.69
2023-03-03T15:52:02.261Z,97681.66
2023-03-03T15:54:15.591Z,97691.44
2023-03-03T15:56:33.331Z,97687.50
2023-03-03T15:58:57.661Z,97684.53
2023-03-03T16:01:27.428Z,97684.00
2023-03-03T16:03:46.711Z,97689.25
2023-03-03T16:06:03.970Z,97693.63
2023-03-03T16:08:36.168Z,97689.94
2023-03-03T16:10:55.520Z,97696.41
2023-03-03T16:13:06.258Z,97692.97
2023-03-03T16:15:37.844Z,97692.66
2023-03-03T16:18:07.241Z,97696.97
2023-03-03T16:20:42.183Z,97699.59
2023-03-03T16:23:12.560Z,97692.31
2023-03-03T16:25:42.611Z,97692.63
2023-03-03T16:28:00.088Z,97687.88
2023-03-03T16:30:43.268Z,97690.38
2023-03-03T16:33:03.483Z,97688.31
2023-03-03T16:35:25.907Z,97684.56
2023-03-03T16:37:36.748Z,97682.53
2023-03-03T16:40:11.491Z,97684.78
2023-03-03T16:42:28.600Z,97678.50
2023-03-03T16:44:50.467Z,97679.94
2023-03-03T16:46:56.648Z,97680.00
2023-03-03T16:49:18.064Z,97681.44
2023-03-03T16:51:53.181Z,97680.72
2023-03-03T16:54:19.335Z,97688.13
2023-03-03T16:56:34.665Z,97691.16
2023-03-03T16:59:04.790Z,97686.16
2023-03-03T17:01:16.356Z,97680.03
2023-03-03T17:03:40.443Z,97682.25
2023-03-03T17:05:52.334Z,97680.69
2023-03-03T17:08:10.353Z,97679.44
2023-03-03T17:10:52.063Z,97687.28
2023-03-03T17:12:54.789Z,97682.50
2023-03-03T17:15:15.650Z,97685.03
2023-03-03T17:17:26.455Z,97687.50
2023-03-03T17:19:44.247Z,97691.81
2023-03-03T17:22:18.225Z,97684.84
2023-03-03T17:24:41.779Z,97696.19
2023-03-03T17:27:09.076Z,97691.94
2023-03-03T17:29:47.666Z,97696.53
2023-03-03T17:32:12.377Z,97700.88
2023-03-03T17:34:39.548Z,97698.47
2023-03-03T17:37:19.498Z,97697.09
2023-03-03T17:39:39.947Z,97705.44
2023-03-03T17:41:54.225Z,97700.63
2023-03-03T17:44:38.432Z,97704.41
2023-03-03T17:46:55.148Z,97703.06
2023-03-03T17:49:18.571Z,97702.03
2023-03-03T17:51:46.551Z,97701.78
2023-03-03T17:54:33.990Z,97705.81
2023-03-03T17:57:16.956Z,97704.22
2023-03-03T17:59:56.984Z,97706.69
2023-03-03T18:02:24.516Z,97703.22
2023-03-03T18:05:02.439Z,97711.28
2023-03-03T18:07:18.944Z,97712.09
2023-03-03T18:09:26.440Z,97704.09
2023-03-03T18:11:39.999Z,97709.75
2023-03-03T18:14:01.393Z,97710.00
2023-03-03T18:16:26.860Z,97706.81
2023-03-03T18:18:35.094Z,97710.06
2023-03-03T18:20:56.693Z,97710.59
2023-03-03T18:23:24.159Z,97704.16
2023-03-03T18:26:03.261Z,97702.59
2023-03-03T18:28:05.963Z,97712.78
2023-03-03T18:30:08.661Z,97709.56
2023-03-03T18:32:20.586Z,97702.88
2023-03-03T18:34:35.917Z,97708.50
2023-03-03T18:36:56.189Z,97710.38
2023-03-03T18:39:03.154Z,97712.28
2023-03-03T18:41:13.451Z,97712.53
2023-03-03T18:43:45.198Z,97721.09
2023-03-03T18:45:50.305Z,97722.19
2023-03-03T18:48:04.316Z,97720.28
2023-03-03T18:50:25.853Z,97717.34
2023-03-03T18:52:31.105Z,97702.59
2023-03-03T18:54:40.049Z,97716.22
2023-03-03T18:56:57.998Z,97706.31
2023-03-03T18:59:00.612Z,97710.31
2023-03-03T19:01:11.874Z,97717.03
2023-03-03T19:03:28.537Z,97723.19
2023-03-03T19:05:49.048Z,97716.19
2023-03-03T19:08:01.884Z,97717.78
2023-03-03T19:10:40.212Z,97719.66
2023-03-03T19:12:42.869Z,97721.28
2023-03-03T19:14:48.407Z,97719.41
2023-03-03T19:16:52.589Z,97719.38
2023-03-03T19:18:55.295Z,97718.28
2023-03-03T19:21:19.045Z,97723.06
2023-03-03T19:23:50.071Z,97722.00
2023-03-03T19:26:23.559Z,97719.06
2023-03-03T19:28:46.537Z,97720.66
2023-03-03T19:30:59.370Z,97715.63
2023-03-03T19:33:40.936Z,97727.44
2023-03-03T19:36:00.360Z,97723.16
2023-03-03T19:38:11.869Z,97720.50
2023-03-03T19:40:52.065Z,97714.59
2023-03-03T19:43:09.393Z,97720.78
2023-03-03T19:45:40.958Z,97717.59
2023-03-03T19:48:06.598Z,97717.34
2023-03-03T19:50:29.417Z,97713.31
2023-03-03T19:52:41.750Z,97714.38
2023-03-03T19:55:02.564Z,97704.75
2023-03-03T19:57:20.194Z,97709.03
2023-03-03T19:59:46.518Z,97702.59
2023-03-03T20:02:07.447Z,97698.81
2023-03-03T20:04:28.149Z,97701.75
2023-03-03T20:06:51.334Z,97699.09
2023-03-03T20:08:59.490Z,97708.47
2023-03-03T20:11:36.054Z,97707.13
2023-03-03T20:13:44.335Z,97685.66
2023-03-03T20:16:04.983Z,97696.38
2023-03-03T20:18:38.799Z,97693.41
2023-03-03T20:21:00.266Z,97691.78
2023-03-03T20:23:17.403Z,97691.22
2023-03-03T20:25:36.021Z,97694.41
2023-03-03T20:28:05.899Z,97690.91
2023-03-03T20:30:47.297Z,97694.34
2023-03-03T20:33:03.194Z,97691.97
2023-03-03T20:35:26.054Z,97695.41
2023-03-03T20:37:46.743Z,97687.59
2023-03-03T20:40:11.713Z,97695.84
2023-03-03T20:42:27.144Z,97692.59
2023-03-03T20:45:08.246Z,97697.94
2023-03-03T20:47:31.573Z,97691.16
2023-03-03T20:49:49.386Z,97692.47
2023-03-03T20:52:04.311Z,97687.88
2023-03-03T20:54:51.047Z,97687.31
2023-03-03T20:57:19.911Z,97685.97
2023-03-03T20:59:34.721Z,97681.38
2023-03-03T21:01:53.418Z,97691.59
2023-03-03T21:04:22.172Z,97680.59
2023-03-03T21:06:39.056Z,97688.13
2023-03-03T21:08:55.036Z,97680.31
2023-03-03T21:10:57.934Z,97688.09
2023-03-03T21:13:27.075Z,97682.44
2023-03-03T21:15:34.058Z,97675.69
2023-03-03T21:17:36.688Z,97679.47
2023-03-03T21:19:39.320Z,97679.22
2023-03-03T21:21:46.473Z,97677.84
2023-03-03T21:23:50.910Z,97677.84
2023-03-03T21:25:55.319Z,97674.84
2023-03-03T21:28:32.223Z,97675.41
2023-03-03T21:30:34.888Z,97672.72
2023-03-03T21:32:44.984Z,97670.28
2023-03-03T21:35:03.992Z,97678.06
2023-03-03T21:37:12.442Z,97678.84
2023-03-03T21:39:31.468Z,97683.91
2023-03-03T21:41:57.022Z,97681.50
2023-03-03T21:43:59.796Z,97679.34
2023-03-03T21:46:03.597Z,97674.22
2023-03-03T21:48:06.574Z,97675.81
2023-03-03T21:50:09.821Z,97681.19
2023-03-03T21:52:15.164Z,97677.44
2023-03-03T21:54:17.929Z,97672.59
2023-03-03T21:56:20.497Z,97680.13
2023-03-03T21:58:23.413Z,97665.56
2023-03-03T22:00:26.406Z,97676.06
2023-03-03T22:02:29.037Z,97676.81
2023-03-03T22:04:31.891Z,97679.44
2023-03-03T22:06:34.624Z,97683.50
2023-03-03T22:08:37.274Z,97670.53
2023-03-03T22:10:39.931Z,97671.06
2023-03-03T22:12:42.513Z,97678.84
2023-03-03T22:14:45.184Z,97671.59
2023-03-03T22:16:47.890Z,97684.50
2023-03-03T22:18:50.629Z,97677.25
2023-03-03T22:20:53.196Z,97676.69
2023-03-03T22:22:55.894Z,97676.13
2023-03-03T22:24:58.449Z,97676.63
2023-03-03T22:27:01.046Z,97676.63
2023-03-03T22:29:04.077Z,97675.78
2023-03-03T22:31:07.407Z,97676.88
2023-03-03T22:33:10.142Z,97678.19
2023-03-03T22:35:12.890Z,97674.13
2023-03-03T22:37:15.546Z,97676.00
2023-03-03T22:39:18.084Z,97676.84
2023-03-03T22:41:20.805Z,97687.81
2023-03-03T22:43:23.606Z,97680.25
2023-03-03T22:45:26.430Z,97685.91
2023-03-03T22:47:29.076Z,97682.34
2023-03-03T22:49:31.754Z,97680.41
2023-03-03T22:51:34.407Z,97673.69
2023-03-03T22:53:37.021Z,97682.28
2023-03-03T22:55:39.693Z,97685.19
2023-03-03T22:57:42.714Z,97681.72
2023-03-03T22:59:45.317Z,97688.69
2023-03-03T23:01:48.007Z,97676.31
2023-03-03T23:03:50.758Z,97671.53
2023-03-03T23:05:53.699Z,97681.13
2023-03-03T23:07:56.329Z,97677.38
2023-03-03T23:09:58.934Z,97679.25
2023-03-03T23:12:02.172Z,97682.44
2023-03-03T23:14:04.946Z,97677.59
2023-03-03T23:16:07.954Z,97677.59
2023-03-03T23:18:10.716Z,97683.22
2023-03-03T23:20:17.023Z,97682.88
2023-03-03T23:22:19.841Z,97679.84
2023-03-03T23:24:22.507Z,97681.97
2023-03-03T23:26:25.176Z,97682.47
2023-03-03T23:28:27.770Z,97685.69
2023-03-03T23:30:30.404Z,97683.84
2023-03-03T23:32:33.090Z,97678.97
2023-03-03T23:34:35.902Z,97681.09
2023-03-03T23:36:38.551Z,97680.56
2023-03-03T23:38:43.080Z,97681.88
2023-03-03T23:40:47.004Z,97673.00
2023-03-03T23:42:49.894Z,97670.00
2023-03-03T23:44:52.535Z,97673.75
2023-03-03T23:46:55.237Z,97669.47
2023-03-03T23:48:58.326Z,97668.34
2023-03-03T23:51:01.694Z,97667.56
2023-03-03T23:53:05.461Z,97671.34
2023-03-03T23:55:08.597Z,97667.56
2023-03-03T23:57:11.319Z,97673.22
2023-03-03T23:59:15.188Z,97668.66
